Time;durP1;ratioP1;P1;durP2;ratioP2;P2;SDS_P1;SDS_P2;PMS_P1;PMS_P2;Temp;Humidity;BMP_temperature;BMP_pressure;BME280_temperature;BME280_humidity;BME280_pressure;Samples;Min_cycle;Max_cycle;Signal;HPM_P1;HPM_P2
2022/01/03 00:01:49;;;;;;;33.70;21.70;;;;;;;1.31;87.09;97431.86;110006;1250;68598;-69
2022/01/03 00:04:18;;;;;;;32.50;20.70;;;;;;;1.36;86.68;97433.05;109830;1251;69012;-68
2022/01/03 00:06:49;;;;;;;26.60;17.40;;;;;;;1.40;86.67;97431.21;109972;1250;58980;-66
2022/01/03 00:09:20;;;;;;;31.60;23.90;;;;;;;1.45;86.55;97432.92;109946;1250;58955;-67
2022/01/03 00:11:49;;;;;;;24.90;16.20;;;;;;;1.49;86.97;97437.07;109839;1251;69735;-70
2022/01/03 00:14:19;;;;;;;31.30;19.30;;;;;;;1.53;86.48;97438.45;109996;1249;67372;-69
2022/01/03 00:16:48;;;;;;;28.80;20.40;;;;;;;1.57;86.37;97435.40;109995;1250;68515;-68
2022/01/03 00:19:17;;;;;;;30.00;22.30;;;;;;;1.61;86.27;97414.45;110174;1249;58900;-69
2022/01/03 00:21:50;;;;;;;27.90;19.00;;;;;;;1.65;86.17;97395.75;110019;1250;58923;-68
2022/01/03 00:24:25;;;;;;;38.60;26.30;;;;;;;1.69;86.40;97385.84;110001;1250;70031;-68
2022/01/03 00:27:00;;;;;;;57.60;36.40;;;;;;;1.69;85.97;97384.80;110057;1249;67933;-68
2022/01/03 00:29:44;;;;;;;32.20;19.90;;;;;;;1.65;87.08;97369.29;109985;1250;68729;-68
2022/01/03 00:32:14;;;;;;;20.50;14.40;;;;;;;1.69;86.42;97357.98;109942;1250;58867;-69
2022/01/03 00:34:45;;;;;;;24.60;16.00;;;;;;;1.72;86.50;97342.41;110026;1249;58863;-66
2022/01/03 00:37:16;;;;;;;22.30;13.60;;;;;;;1.74;86.96;97329.78;110027;1249;70094;-68
2022/01/03 00:39:46;;;;;;;41.10;23.90;;;;;;;1.75;87.30;97306.71;109988;1250;68852;-68
2022/01/03 00:42:15;;;;;;;;;;;;;;;1.74;87.07;97312.41;110076;1249;69466;-68
2022/01/03 00:44:46;;;;;;;35.90;25.20;;;;;;;1.73;87.12;97319.17;109988;1250;58879;-69
2022/01/03 00:47:15;;;;;;;78.60;41.30;;;;;;;1.73;87.18;97316.42;109948;1250;58882;-71
2022/01/03 00:49:45;;;;;;;65.90;38.50;;;;;;;1.70;87.30;97313.43;110160;1250;69801;-69
2022/01/03 00:52:15;;;;;;;50.60;29.00;;;;;;;1.68;87.62;97316.27;110010;1250;68693;-67
2022/01/03 00:54:44;;;;;;;44.70;26.30;;;;;;;1.70;87.59;97326.16;109990;1250;68778;-71
2022/01/03 00:57:24;;;;;;;39.10;25.70;;;;;;;1.72;87.10;97328.14;109987;1250;58913;-69
2022/01/03 01:00:05;;;;;;;29.70;18.90;;;;;;;1.75;87.37;97337.13;109860;1252;58956;-69
2022/01/03 01:02:37;;;;;;;36.10;20.70;;;;;;;1.75;88.99;97342.09;109892;1250;70757;-68
2022/01/03 01:05:07;;;;;;;55.20;29.30;;;;;;;1.79;88.85;97335.60;109952;1250;68607;-68
2022/01/03 01:07:40;;;;;;;45.90;25.00;;;;;;;1.84;89.00;97333.86;109818;1250;67527;-69
2022/01/03 01:10:10;;;;;;;38.10;23.50;;;;;;;1.89;88.07;97343.80;110249;1249;58942;-67
2022/01/03 01:12:43;;;;;;;25.50;15.90;;;;;;;1.91;88.03;97346.66;110154;1250;58808;-67
2022/01/03 01:15:14;;;;;;;29.00;18.20;;;;;;;1.94;87.39;97353.56;110074;1250;70542;-69
2022/01/03 01:17:45;;;;;;;23.30;13.60;;;;;;;1.95;87.09;97353.04;110149;1248;67845;-69
2022/01/03 01:20:16;;;;;;;29.40;18.80;;;;;;;1.94;87.06;97356.50;109938;1250;69658;-69
2022/01/03 01:22:47;;;;;;;28.80;18.00;;;;;;;1.96;87.25;97377.73;109908;1250;58907;-67
2022/01/03 01:27:49;;;;;;;57.20;30.80;;;;;;;2.02;87.43;97382.31;110016;1250;69946;-69
2022/01/03 01:30:26;;;;;;;32.20;18.90;;;;;;;2.01;87.40;97372.36;110006;1250;68638;-69
2022/01/03 01:33:12;;;;;;;28.00;18.10;;;;;;;2.05;87.26;97350.06;110013;1250;68718;-70
2022/01/03 01:36:05;;;;;;;55.30;30.00;;;;;;;2.13;87.07;97312.45;109956;1250;59006;-66
2022/01/03 01:38:38;;;;;;;44.60;26.40;;;;;;;2.10;86.94;97307.39;109914;1249;59017;-68
2022/01/03 01:41:09;;;;;;;40.90;26.90;;;;;;;2.09;87.05;97302.27;110053;1250;69989;-70
2022/01/03 01:43:47;;;;;;;41.60;24.30;;;;;;;2.07;87.18;97304.60;110082;1248;68275;-68
2022/01/03 01:46:21;;;;;;;26.80;16.70;;;;;;;2.07;87.10;97305.98;110027;1249;68461;-69
2022/01/03 01:48:55;;;;;;;45.50;28.00;;;;;;;2.08;87.09;97296.48;109749;1252;58916;-71
2022/01/03 01:51:26;;;;;;;47.00;28.00;;;;;;;2.09;87.52;97299.20;109951;1250;58935;-68
2022/01/03 01:54:01;;;;;;;34.80;22.70;;;;;;;2.07;87.72;97300.80;109934;1250;70759;-69
2022/01/03 01:56:53;;;;;;;42.80;25.60;;;;;;;2.10;87.41;97314.30;109973;1250;68721;-68
2022/01/03 01:59:37;;;;;;;55.30;30.30;;;;;;;2.11;88.06;97326.78;110021;1250;69876;-68
2022/01/03 02:02:10;;;;;;;52.20;29.00;;;;;;;2.12;88.66;97321.94;109844;1250;58903;-70
2022/01/03 02:04:47;;;;;;;43.20;24.40;;;;;;;2.12;89.18;97320.05;110039;1250;58884;-68
2022/01/03 02:08:03;;;;;;;36.80;21.10;;;;;;;2.13;89.32;97310.89;110147;1250;69785;-68
2022/01/03 02:10:45;;;;;;;53.10;27.00;;;;;;;2.18;89.15;97313.80;109951;1250;68243;-68
2022/01/03 02:13:18;;;;;;;58.60;27.30;;;;;;;2.23;89.47;97311.69;109846;1250;69609;-68
2022/01/03 02:15:57;;;;;;;34.30;17.90;;;;;;;2.28;90.65;97306.48;109901;1251;58911;-67
2022/01/03 02:18:27;;;;;;;46.40;22.00;;;;;;;2.35;90.20;97291.08;110176;1250;58874;-68
2022/01/03 02:20:57;;;;;;;32.90;17.60;;;;;;;2.39;90.43;97299.11;110215;1249;69896;-70
2022/01/03 02:23:26;;;;;;;58.80;26.80;;;;;;;2.41;89.82;97298.04;110169;1250;67633;-69
2022/01/03 02:25:56;;;;;;;44.90;22.60;;;;;;;2.41;89.66;97294.76;109936;1250;68340;-71
2022/01/03 02:28:33;;;;;;;42.80;22.80;;;;;;;2.40;88.91;97283.96;110009;1250;58936;-68
2022/01/03 02:31:11;;;;;;;41.50;23.40;;;;;;;2.39;89.19;97287.61;110044;1250;58964;-71
2022/01/03 02:33:54;;;;;;;37.80;19.20;;;;;;;2.40;89.36;97278.79;109916;1250;70756;-70
2022/01/03 02:36:44;;;;;;;33.90;20.60;;;;;;;2.42;88.93;97283.70;110004;1250;68758;-67
2022/01/03 02:39:42;;;;;;;42.60;23.70;;;;;;;2.44;88.82;97280.67;110012;1250;70368;-69
2022/01/03 02:42:43;;;;;;;29.30;18.50;;;;;;;2.47;88.87;97276.42;109877;1250;58905;-68
2022/01/03 02:45:39;;;;;;;39.10;22.90;;;;;;;2.53;88.62;97270.00;109831;1250;58952;-70
2022/01/03 02:48:26;;;;;;;20.90;12.80;;;;;;;2.57;88.69;97263.12;109905;1251;70880;-67
2022/01/03 02:51:03;;;;;;;26.60;13.50;;;;;;;2.60;88.15;97258.34;109962;1250;68795;-71
2022/01/03 02:53:47;;;;;;;29.80;16.50;;;;;;;2.62;87.92;97252.93;109796;1252;68754;-69
2022/01/03 02:57:03;;;;;;;46.00;21.20;;;;;;;2.64;87.96;97256.47;109924;1250;58916;-68
2022/01/03 03:00:03;;;;;;;28.50;15.50;;;;;;;2.64;88.35;97247.67;110028;1251;58880;-70
2022/01/03 03:03:10;;;;;;;57.30;27.20;;;;;;;2.65;88.71;97241.45;109951;1250;70866;-68
2022/01/03 03:05:59;;;;;;;27.20;15.20;;;;;;;2.62;89.04;97238.30;109762;1252;68944;-69
2022/01/03 03:08:40;;;;;;;23.60;12.50;;;;;;;2.62;88.41;97232.97;109971;1250;69567;-69
2022/01/03 03:11:40;;;;;;;21.30;11.40;;;;;;;2.62;88.41;97232.10;110332;1250;58930;-72
2022/01/03 03:14:32;;;;;;;40.40;19.80;;;;;;;2.64;88.32;97232.19;109938;1250;58956;-68
2022/01/03 03:17:22;;;;;;;40.20;19.70;;;;;;;2.65;88.43;97227.31;109875;1250;71047;-71
2022/01/03 03:20:09;;;;;;;38.00;19.50;;;;;;;2.68;88.39;97224.10;110059;1250;67784;-71
2022/01/03 03:26:27;;;;;;;63.50;27.10;;;;;;;2.70;89.14;97224.55;110028;1250;58923;-71
2022/01/03 03:29:12;;;;;;;29.60;14.70;;;;;;;2.70;89.45;97219.88;109696;1251;58918;-68
2022/01/03 03:32:13;;;;;;;30.50;14.90;;;;;;;2.72;88.90;97214.61;110016;1250;70787;-69
2022/01/03 03:35:15;;;;;;;41.10;17.90;;;;;;;2.75;88.34;97211.23;109765;1257;68054;-67
2022/01/03 03:38:02;;;;;;;192.10;31.00;;;;;;;2.78;88.93;97209.39;109429;1256;69462;-67
2022/01/03 03:40:43;;;;;;;42.20;16.40;;;;;;;2.75;89.39;97200.72;109351;1258;59672;-71
2022/01/03 03:43:38;;;;;;;25.50;13.10;;;;;;;2.73;89.29;97200.80;109002;1258;59670;-68
2022/01/03 03:46:52;;;;;;;26.40;15.10;;;;;;;2.77;88.82;97200.62;109227;1258;71880;-67
2022/01/03 03:49:41;;;;;;;164.60;28.30;;;;;;;2.76;88.68;97202.71;109398;1257;68625;-70
2022/01/03 03:52:28;;;;;;;108.00;22.10;;;;;;;2.76;89.13;97201.34;109314;1258;68633;-71
2022/01/03 03:55:23;;;;;;;26.00;12.60;;;;;;;2.77;88.84;97196.66;109328;1255;59717;-70
2022/01/03 03:58:14;;;;;;;55.60;16.60;;;;;;;2.80;88.40;97193.78;109359;1257;59763;-70
2022/01/03 04:00:54;;;;;;;37.60;18.50;;;;;;;2.83;88.54;97190.55;109096;1258;70838;-68
2022/01/03 04:04:12;;;;;;;37.00;15.50;;;;;;;2.85;88.41;97179.97;109312;1257;68663;-72
2022/01/03 04:06:57;;;;;;;70.10;16.90;;;;;;;2.85;88.74;97177.23;109894;1250;69431;-71
2022/01/03 04:09:35;;;;;;;38.60;12.10;;;;;;;2.85;88.77;97176.04;109762;1251;59683;-67
2022/01/03 04:12:19;;;;;;;30.40;11.00;;;;;;;2.86;88.80;97170.98;110007;1250;59676;-71
2022/01/03 04:14:59;;;;;;;33.40;10.00;;;;;;;2.86;89.42;97169.77;109706;1250;70782;-70
2022/01/03 04:17:39;;;;;;;85.10;17.60;;;;;;;2.85;89.61;97167.90;109853;1249;68893;-67
2022/01/03 04:20:15;;;;;;;16.90;7.90;;;;;;;2.83;90.26;97174.23;109806;1251;70487;-70
2022/01/03 04:22:59;;;;;;;15.10;7.40;;;;;;;2.81;90.11;97172.57;110033;1250;59682;-72
2022/01/03 04:25:36;;;;;;;16.60;8.70;;;;;;;2.81;89.55;97182.68;110007;1250;59669;-68
2022/01/03 04:28:14;;;;;;;44.40;12.60;;;;;;;2.83;89.47;97185.58;109781;1250;71489;-71
2022/01/03 04:31:19;;;;;;;84.40;15.90;;;;;;;2.83;89.36;97185.38;109997;1250;68640;-71
2022/01/03 04:34:00;;;;;;;18.00;7.80;;;;;;;2.84;89.40;97188.77;109710;1251;69567;-69
2022/01/03 04:36:40;;;;;;;49.20;12.00;;;;;;;2.87;89.14;97192.98;109987;1250;59770;-72
2022/01/03 04:39:26;;;;;;;82.50;12.80;;;;;;;2.86;89.23;97187.51;109791;1250;59664;-71
2022/01/03 04:42:12;;;;;;;13.10;7.00;;;;;;;2.87;89.30;97180.20;109946;1250;71081;-70
2022/01/03 04:44:56;;;;;;;56.30;14.30;;;;;;;2.86;89.51;97175.09;110014;1251;68435;-72
2022/01/03 04:47:31;;;;;;;13.20;7.30;;;;;;;2.81;89.77;97166.34;109672;1252;69451;-69
2022/01/03 04:50:04;;;;;;;47.60;11.20;;;;;;;2.82;89.68;97157.91;109826;1253;60108;-68
2022/01/03 04:52:44;;;;;;;19.40;8.70;;;;;;;2.77;89.63;97159.34;109731;1252;59687;-69
2022/01/03 04:55:29;;;;;;;13.60;6.60;;;;;;;2.71;90.06;97165.63;109808;1252;71532;-69
2022/01/03 04:58:01;;;;;;;13.50;7.20;;;;;;;2.69;89.92;97170.37;109785;1251;69035;-70
2022/01/03 05:00:39;;;;;;;11.60;6.00;;;;;;;2.69;89.56;97169.33;109718;1252;69256;-72
2022/01/03 05:03:16;;;;;;;14.50;6.90;;;;;;;2.69;89.68;97161.09;109952;1251;59786;-68
2022/01/03 05:05:55;;;;;;;22.40;10.60;;;;;;;2.67;89.78;97165.80;109903;1251;59682;-67
2022/01/03 05:08:44;;;;;;;33.30;9.60;;;;;;;2.66;89.93;97175.50;109861;1252;71129;-71
2022/01/03 05:11:27;;;;;;;43.60;10.60;;;;;;;2.65;89.61;97175.88;109768;1251;68940;-69
2022/01/03 05:14:07;;;;;;;12.50;5.70;;;;;;;2.63;89.88;97173.05;109705;1251;69594;-70
2022/01/03 05:16:42;;;;;;;13.10;5.40;;;;;;;2.61;89.81;97168.69;109839;1250;59737;-69
2022/01/03 05:19:27;;;;;;;16.50;6.20;;;;;;;2.58;89.90;97159.14;109800;1251;59745;-68
2022/01/03 05:22:05;;;;;;;12.70;5.50;;;;;;;2.57;89.71;97138.20;109907;1251;70846;-68
2022/01/03 05:25:03;;;;;;;13.80;5.50;;;;;;;2.54;89.61;97129.20;109619;1251;68752;-72
2022/01/03 05:27:37;;;;;;;30.90;7.80;;;;;;;2.52;89.71;97127.06;109937;1253;69476;-71
2022/01/03 05:30:08;;;;;;;11.50;4.90;;;;;;;2.49;90.12;97129.44;109874;1250;59704;-70
2022/01/03 05:32:43;;;;;;;13.60;6.60;;;;;;;2.48;90.03;97147.38;109866;1250;60091;-70
2022/01/03 05:35:20;;;;;;;9.90;5.30;;;;;;;2.47;90.19;97149.66;109747;1251;71533;-69
2022/01/03 05:37:54;;;;;;;12.60;5.60;;;;;;;2.47;90.09;97139.14;109954;1251;67903;-70
2022/01/03 05:40:28;;;;;;;14.30;6.30;;;;;;;2.46;90.09;97136.80;109910;1251;68667;-68
2022/01/03 05:43:00;;;;;;;9.80;5.40;;;;;;;2.46;89.88;97133.56;109943;1251;59655;-70
2022/01/03 05:45:35;;;;;;;25.00;8.50;;;;;;;2.44;90.00;97130.88;109778;1251;59768;-68
2022/01/03 05:48:07;;;;;;;12.90;6.10;;;;;;;2.40;90.36;97128.64;109734;1251;71596;-70
2022/01/03 05:50:36;;;;;;;13.50;5.50;;;;;;;2.40;90.13;97112.14;109930;1251;68678;-72
2022/01/03 05:53:06;;;;;;;14.60;5.80;;;;;;;2.40;90.01;97109.91;109879;1251;69729;-72
2022/01/03 05:55:36;;;;;;;24.30;8.00;;;;;;;2.37;90.12;97101.60;109778;1251;59758;-69
2022/01/03 05:58:06;;;;;;;24.40;7.50;;;;;;;2.36;90.13;97107.85;110007;1251;59676;-72
2022/01/03 06:01:05;;;;;;;13.00;5.70;;;;;;;2.34;90.25;97108.11;109682;1250;71810;-71
2022/01/03 06:03:59;;;;;;;27.40;9.90;;;;;;;2.29;90.57;97131.37;109706;1253;68029;-73
2022/01/03 06:07:00;;;;;;;12.30;6.60;;;;;;;2.27;90.78;97148.48;109997;1250;69536;-69
2022/01/03 06:09:52;;;;;;;26.80;10.80;;;;;;;2.30;90.47;97156.77;109995;1251;60192;-70
2022/01/03 06:12:35;;;;;;;16.80;8.70;;;;;;;2.31;90.56;97155.88;109855;1248;59705;-67
2022/01/03 06:15:17;;;;;;;10.40;5.90;;;;;;;2.32;90.49;97155.49;110091;1250;71687;-70
2022/01/03 06:18:21;;;;;;;13.30;7.10;;;;;;;2.35;90.17;97146.77;109879;1251;66957;-70
2022/01/03 06:21:03;;;;;;;12.10;6.00;;;;;;;2.36;90.17;97152.74;109965;1250;69844;-70
2022/01/03 06:23:46;;;;;;;18.70;9.70;;;;;;;2.38;90.17;97139.23;109906;1250;59690;-69
2022/01/03 06:26:41;;;;;;;25.60;9.50;;;;;;;2.38;89.93;97133.20;109809;1250;59723;-71
2022/01/03 06:29:26;;;;;;;16.50;9.70;;;;;;;2.36;90.02;97126.60;109871;1250;71560;-73
2022/01/03 06:32:05;;;;;;;13.20;7.40;;;;;;;2.33;89.92;97124.34;110046;1250;67835;-74
2022/01/03 06:34:51;;;;;;;21.70;7.90;;;;;;;2.28;90.11;97112.70;109753;1251;70003;-70
2022/01/03 06:37:29;;;;;;;;;;;;;;;2.23;90.06;97102.24;109958;1250;59669;-69
2022/01/03 06:40:13;;;;;;;79.00;13.20;;;;;;;2.17;90.40;97110.95;109943;1252;59769;-68
2022/01/03 06:43:02;;;;;;;20.00;8.80;;;;;;;2.13;90.32;97117.49;109985;1251;70866;-69
2022/01/03 06:45:35;;;;;;;14.30;7.50;;;;;;;2.10;90.30;97120.02;110051;1250;68913;-72
2022/01/03 06:48:20;;;;;;;23.10;11.60;;;;;;;2.10;90.23;97109.69;109988;1251;68669;-72
2022/01/03 06:51:05;;;;;;;17.50;9.30;;;;;;;2.07;90.75;97134.05;109969;1251;59788;-67
2022/01/03 06:53:56;;;;;;;33.10;15.90;;;;;;;2.12;90.78;97156.88;109770;1251;59639;-67
2022/01/03 06:56:25;;;;;;;25.30;10.80;;;;;;;2.16;91.06;97164.28;110128;1250;71635;-68
2022/01/03 06:59:12;;;;;;;16.60;8.10;;;;;;;2.20;90.60;97164.97;109944;1250;69672;-69
2022/01/03 07:01:54;;;;;;;18.10;9.30;;;;;;;2.22;90.66;97165.39;109876;1251;69833;-67
2022/01/03 07:04:38;;;;;;;17.70;10.60;;;;;;;2.27;90.47;97137.14;110053;1251;59619;-67
2022/01/03 07:07:17;;;;;;;19.10;10.50;;;;;;;2.27;90.59;97168.41;109890;1251;59718;-68
2022/01/03 07:09:55;;;;;;;14.50;7.70;;;;;;;2.29;90.81;97158.21;109923;1251;71949;-66
2022/01/03 07:12:40;;;;;;;33.70;10.30;;;;;;;2.35;90.43;97148.16;109671;1252;68898;-67
2022/01/03 07:21:15;;;;;;;18.30;10.20;;;;;;;2.47;90.31;97145.02;109866;1250;60160;-69
2022/01/03 07:23:55;;;;;;;23.60;11.10;;;;;;;2.52;90.46;97127.77;109802;1252;71677;-70
2022/01/03 07:26:28;;;;;;;25.10;13.00;;;;;;;2.54;90.55;97134.02;110118;1250;68008;-71
2022/01/03 07:29:08;;;;;;;27.60;12.40;;;;;;;2.58;90.46;97130.44;110069;1249;69834;-71
2022/01/03 07:31:54;;;;;;;13.20;8.00;;;;;;;2.63;90.45;97135.04;109798;1247;59733;-71
2022/01/03 07:34:41;;;;;;;17.20;9.80;;;;;;;2.68;90.17;97141.85;109771;1251;59766;-72
2022/01/03 07:37:19;;;;;;;11.70;6.40;;;;;;;2.72;90.34;97146.80;109955;1250;71546;-71
2022/01/03 07:40:05;;;;;;;10.00;6.70;;;;;;;2.79;90.11;97146.31;109773;1251;67790;-69
2022/01/03 07:42:49;;;;;;;19.10;9.20;;;;;;;2.84;89.75;97132.16;109710;1251;69744;-73
2022/01/03 07:45:23;;;;;;;12.30;6.80;;;;;;;2.81;89.75;97141.73;110066;1250;59720;-71
2022/01/03 07:47:55;;;;;;;12.90;7.50;;;;;;;2.83;89.50;97129.77;109835;1251;59682;-68
2022/01/03 07:50:35;;;;;;;17.80;10.20;;;;;;;2.85;89.54;97130.56;109788;1250;70960;-70
2022/01/03 07:53:18;;;;;;;11.40;6.40;;;;;;;2.87;89.62;97126.37;110006;1251;68607;-67
2022/01/03 07:55:58;;;;;;;16.30;8.10;;;;;;;2.92;89.56;97104.77;109906;1250;69322;-69
2022/01/03 07:58:32;;;;;;;14.00;8.40;;;;;;;2.99;89.46;97096.48;109784;1250;59765;-67
2022/01/03 08:01:04;;;;;;;16.60;8.60;;;;;;;3.02;89.63;97121.31;110106;1249;59747;-70
2022/01/03 08:03:34;;;;;;;13.50;8.20;;;;;;;3.07;89.50;97114.90;109850;1250;71453;-70
2022/01/03 08:06:09;;;;;;;12.10;6.50;;;;;;;3.06;89.26;97107.17;110113;1250;68607;-70
2022/01/03 08:08:38;;;;;;;13.00;7.10;;;;;;;3.11;89.28;97094.37;110117;1250;69803;-66
2022/01/03 08:11:10;;;;;;;15.40;7.50;;;;;;;3.13;88.88;97093.80;110153;1251;59627;-68
2022/01/03 08:13:39;;;;;;;16.00;9.30;;;;;;;3.10;89.09;97104.76;110076;1250;59650;-69
2022/01/03 08:16:08;;;;;;;13.50;7.60;;;;;;;3.14;89.03;97104.39;110020;1248;71545;-67
2022/01/03 08:18:37;;;;;;;12.20;7.40;;;;;;;3.19;89.06;97113.63;109910;1250;68980;-68
2022/01/03 08:21:06;;;;;;;10.10;6.90;;;;;;;3.25;88.63;97109.20;109875;1250;68623;-68
2022/01/03 08:23:35;;;;;;;11.80;6.70;;;;;;;3.30;88.56;97097.59;110024;1250;59741;-69
2022/01/03 08:26:04;;;;;;;13.90;7.00;;;;;;;3.36;88.50;97086.65;110122;1250;59740;-67
2022/01/03 08:28:33;;;;;;;16.40;9.00;;;;;;;3.41;88.39;97090.02;109853;1251;71683;-69
2022/01/03 08:31:02;;;;;;;13.60;7.70;;;;;;;3.40;88.33;97099.03;110093;1250;68618;-69
2022/01/03 08:33:31;;;;;;;17.30;9.50;;;;;;;3.43;88.54;97098.50;110149;1250;69465;-70
2022/01/03 08:36:01;;;;;;;19.10;9.90;;;;;;;3.38;88.22;97101.70;109933;1251;59668;-67
2022/01/03 08:38:30;;;;;;;16.10;7.90;;;;;;;3.33;88.53;97085.39;110167;1250;59669;-69
2022/01/03 08:40:59;;;;;;;20.60;10.90;;;;;;;3.31;88.97;97079.96;110123;1247;72026;-70
2022/01/03 08:43:28;;;;;;;18.50;9.40;;;;;;;3.28;89.31;97075.13;110287;1247;68598;-68
2022/01/03 08:45:57;;;;;;;17.80;9.10;;;;;;;3.27;89.21;97074.48;110133;1248;68658;-68
2022/01/03 08:48:28;;;;;;;22.10;11.50;;;;;;;3.30;89.28;97077.45;110143;1248;59724;-68
2022/01/03 08:50:58;;;;;;;13.30;7.40;;;;;;;3.33;89.12;97073.00;110116;1250;59695;-69
2022/01/03 08:53:31;;;;;;;16.70;9.50;;;;;;;3.38;89.11;97067.42;110163;1250;70954;-70
2022/01/03 08:56:00;;;;;;;21.30;10.80;;;;;;;3.43;89.21;97071.48;110160;1247;68676;-70
2022/01/03 08:58:30;;;;;;;16.60;8.30;;;;;;;3.45;89.28;97074.45;109889;1251;69258;-70
2022/01/03 09:00:59;;;;;;;16.20;8.80;;;;;;;3.48;89.24;97069.15;109910;1251;59756;-70
2022/01/03 09:03:28;;;;;;;13.70;8.70;;;;;;;3.53;89.11;97068.73;110133;1250;59601;-71
2022/01/03 09:05:57;;;;;;;27.80;13.20;;;;;;;3.56;88.99;97074.96;110096;1250;70879;-69
2022/01/03 09:08:26;;;;;;;16.90;9.90;;;;;;;3.58;89.22;97076.92;110096;1249;67883;-72
2022/01/03 09:10:56;;;;;;;18.80;11.10;;;;;;;3.63;88.95;97077.73;110156;1250;69234;-68
2022/01/03 09:13:25;;;;;;;28.10;15.90;;;;;;;3.64;88.98;97071.98;109947;1250;237517;-69
2022/01/03 09:15:54;;;;;;;26.00;14.40;;;;;;;3.67;89.02;97085.13;110032;1250;59714;-68
2022/01/03 09:18:26;;;;;;;24.50;13.10;;;;;;;3.67;88.67;97080.45;109844;1250;71546;-70
2022/01/03 09:20:55;;;;;;;16.50;9.60;;;;;;;3.67;88.75;97082.33;109974;1250;67829;-71
2022/01/03 09:23:29;;;;;;;15.00;9.60;;;;;;;3.70;88.62;97089.05;110090;1250;69196;-70
2022/01/03 09:28:56;;;;;;;18.60;10.00;;;;;;;3.74;88.32;97079.71;110148;1250;59597;-70
2022/01/03 09:31:29;;;;;;;19.40;11.10;;;;;;;3.78;88.09;97080.52;110001;1250;71845;-68
2022/01/03 09:34:02;;;;;;;17.60;10.20;;;;;;;3.83;88.22;97072.37;109852;1250;68626;-67
2022/01/03 09:36:33;;;;;;;19.30;12.90;;;;;;;3.88;87.91;97073.14;110085;1250;69479;-68
2022/01/03 09:39:04;;;;;;;17.20;10.60;;;;;;;3.91;87.87;97076.08;109888;1250;59722;-67
2022/01/03 09:41:37;;;;;;;17.50;10.40;;;;;;;3.94;87.56;97080.27;109963;1250;59752;-67
2022/01/03 09:44:11;;;;;;;23.50;11.20;;;;;;;3.98;87.66;97074.52;109935;1251;70870;-67
2022/01/03 09:46:43;;;;;;;19.50;10.30;;;;;;;4.02;87.46;97073.10;109973;1251;68200;-71
2022/01/03 09:49:13;;;;;;;22.00;12.70;;;;;;;4.05;87.16;97070.38;110066;1250;70197;-70
2022/01/03 09:51:43;;;;;;;;;;;;;;;4.04;87.22;97065.96;109856;1250;59772;-67
2022/01/03 09:54:19;;;;;;;25.50;14.30;;;;;;;4.05;86.94;97073.84;110140;1249;59627;-71
2022/01/03 09:56:50;;;;;;;17.80;10.80;;;;;;;4.04;87.03;97069.19;109962;1251;71589;-68
2022/01/03 09:59:19;;;;;;;22.30;12.60;;;;;;;4.08;86.72;97057.28;110183;1250;68626;-68
2022/01/03 10:01:48;;;;;;;26.00;16.10;;;;;;;4.11;86.77;97062.33;110077;1247;69384;-70
2022/01/03 10:04:18;;;;;;;24.50;13.50;;;;;;;4.14;86.71;97062.84;109904;1250;59730;-68
2022/01/03 10:06:48;;;;;;;22.50;13.20;;;;;;;4.16;86.69;97063.44;109982;1250;60032;-70
2022/01/03 10:09:21;;;;;;;19.00;12.10;;;;;;;4.15;86.68;97050.02;110121;1248;72199;-71
2022/01/03 10:11:50;;;;;;;22.70;11.50;;;;;;;4.16;86.65;97050.15;110129;1250;67964;-68
2022/01/03 10:14:19;;;;;;;21.20;12.20;;;;;;;4.21;86.59;97043.17;110111;1251;69620;-67
2022/01/03 10:16:49;;;;;;;27.50;15.70;;;;;;;4.26;86.32;97032.73;110114;1248;59765;-69
2022/01/03 10:19:25;;;;;;;21.50;12.50;;;;;;;4.36;86.39;97016.66;110057;1250;60117;-70
2022/01/03 10:21:55;;;;;;;22.50;12.70;;;;;;;4.51;86.13;97007.88;110063;1248;72121;-69
2022/01/03 10:24:33;;;;;;;21.30;12.90;;;;;;;4.63;85.77;97002.58;110161;1248;68591;-68
2022/01/03 10:27:03;;;;;;;19.60;11.70;;;;;;;4.72;85.59;96993.11;110124;1250;69440;-69
2022/01/03 10:29:33;;;;;;;18.70;11.40;;;;;;;4.78;85.30;96986.90;110148;1247;60094;-70
2022/01/03 10:32:05;;;;;;;22.60;13.20;;;;;;;4.77;84.89;96988.84;110132;1250;59684;-70
2022/01/03 10:34:34;;;;;;;18.90;11.60;;;;;;;4.75;85.05;96994.80;110156;1248;70963;-70
2022/01/03 10:37:12;;;;;;;19.50;11.50;;;;;;;4.76;84.91;96994.06;110052;1250;67126;-69
2022/01/03 10:39:41;;;;;;;26.60;15.20;;;;;;;4.79;85.03;96995.29;110062;1248;70011;-67
2022/01/03 10:42:21;;;;;;;19.80;13.00;;;;;;;4.74;84.39;96997.84;109976;1249;59753;-69
2022/01/03 10:44:50;;;;;;;22.00;13.40;;;;;;;4.72;84.99;96995.34;110163;1250;59643;-63
2022/01/03 10:47:34;;;;;;;20.70;11.80;;;;;;;4.72;84.84;96999.16;109804;1251;70916;-66
2022/01/03 10:50:18;;;;;;;21.80;11.00;;;;;;;4.73;85.17;96992.02;109949;1250;68200;-66
2022/01/03 10:52:48;;;;;;;26.00;15.60;;;;;;;4.76;85.20;96989.95;110168;1248;69072;-69
2022/01/03 10:55:21;;;;;;;22.00;13.20;;;;;;;4.78;84.63;96995.36;110097;1250;60021;-68
2022/01/03 10:58:00;;;;;;;23.10;12.70;;;;;;;4.83;84.60;96999.54;110157;1250;59678;-67
2022/01/03 11:00:41;;;;;;;19.30;11.00;;;;;;;4.88;84.50;97008.76;110168;1248;71979;-67
2022/01/03 11:03:32;;;;;;;24.20;15.00;;;;;;;4.97;84.92;97007.08;109841;1251;68736;-68
2022/01/03 11:06:25;;;;;;;20.00;11.70;;;;;;;5.09;84.98;97007.75;110225;1248;70031;-70
2022/01/03 11:11:43;;;;;;;22.50;13.00;;;;;;;5.40;84.13;97006.15;109773;1251;59800;-70
2022/01/03 11:14:41;;;;;;;20.30;11.00;;;;;;;5.54;84.09;97017.05;110073;1251;72189;-69
2022/01/03 11:17:28;;;;;;;25.80;15.80;;;;;;;5.69;83.63;97038.14;110046;1250;67941;-69
2022/01/03 11:19:59;;;;;;;22.40;14.10;;;;;;;5.74;82.48;97040.27;110045;1249;69484;-69
2022/01/03 11:22:39;;;;;;;12.80;7.80;;;;;;;5.77;82.35;97031.98;110034;1251;59674;-69
2022/01/03 11:25:09;;;;;;;22.30;13.80;;;;;;;5.78;83.08;97031.05;109960;1251;59756;-68
2022/01/03 11:27:40;;;;;;;13.60;8.30;;;;;;;5.76;82.45;97033.03;110016;1251;71614;-71
2022/01/03 11:30:11;;;;;;;18.50;9.70;;;;;;;5.77;82.88;97034.54;109885;1250;68545;-71
2022/01/03 11:32:43;;;;;;;16.60;10.50;;;;;;;5.81;82.72;97038.42;110013;1249;68773;-69
2022/01/03 11:35:13;;;;;;;18.00;11.10;;;;;;;5.85;82.13;97033.86;110122;1247;59731;-70
2022/01/03 11:37:47;;;;;;;18.50;11.20;;;;;;;5.86;82.28;97029.33;110073;1250;59747;-67
2022/01/03 11:40:17;;;;;;;22.40;14.20;;;;;;;5.81;81.83;97027.58;110081;1251;70792;-66
2022/01/03 11:42:47;;;;;;;;;;;;;;;5.71;80.70;97028.70;110133;1249;67816;-68
2022/01/03 11:45:16;;;;;;;25.90;15.30;;;;;;;5.59;81.79;97032.48;110176;1248;69288;-68
2022/01/03 11:47:46;;;;;;;23.40;14.30;;;;;;;5.45;81.57;97035.38;110157;1248;59741;-65
2022/01/03 11:50:16;;;;;;;23.70;13.60;;;;;;;5.29;81.71;97035.13;110155;1248;59723;-66
2022/01/03 11:52:46;;;;;;;21.00;12.20;;;;;;;5.13;82.05;97027.39;110138;1250;71612;-66
2022/01/03 11:55:16;;;;;;;;;;;;;;;5.05;82.73;97027.00;109995;1250;67981;-66
2022/01/03 12:06:06;;;;;;;26.20;15.10;;;;;;;4.85;83.99;96984.40;109891;1250;71006;-66
2022/01/03 12:08:38;;;;;;;25.80;15.90;;;;;;;4.81;84.27;96979.13;109963;1250;68071;-65
2022/01/03 12:11:17;;;;;;;20.20;13.40;;;;;;;4.74;84.57;96974.52;109742;1250;69441;-68
2022/01/03 12:13:48;;;;;;;17.50;11.00;;;;;;;4.69;84.82;96976.21;109847;1249;59753;-65
2022/01/03 12:16:19;;;;;;;17.30;11.30;;;;;;;4.68;84.83;96983.15;110167;1250;59674;-69
2022/01/03 12:19:01;;;;;;;24.60;15.00;;;;;;;4.69;85.26;96982.77;109765;1251;71542;-66
2022/01/03 12:21:48;;;;;;;25.70;14.80;;;;;;;4.68;85.44;96989.04;110189;1248;68718;-69
2022/01/03 12:24:26;;;;;;;25.20;14.70;;;;;;;4.65;86.05;96982.12;110128;1248;69737;-66
2022/01/03 12:27:14;;;;;;;26.70;15.90;;;;;;;4.59;86.42;96981.06;110115;1250;59702;-65
2022/01/03 12:32:31;;;;;;;34.60;19.80;;;;;;;4.55;86.99;96985.73;110155;1249;71596;-65
2022/01/03 12:35:16;;;;;;;24.20;14.50;;;;;;;4.53;87.20;96988.47;110187;1248;67926;-66
2022/01/03 12:37:49;;;;;;;22.90;14.60;;;;;;;4.56;86.82;96982.58;110176;1250;68667;-65
2022/01/03 12:40:19;;;;;;;23.40;13.90;;;;;;;4.61;86.47;96981.09;110146;1250;59980;-66